Time;durP1;ratioP1;P1;durP2;ratioP2;P2;SDS_P1;SDS_P2;PMS_P1;PMS_P2;Temp;Humidity;BMP_temperature;BMP_pressure;BME280_temperature;BME280_humidity;BME280_pressure;Samples;Min_cycle;Max_cycle;Signal;HPM_P1;HPM_P2
2023/06/06 00:00:09;;;;;;;16.48;7.18;;;13.40;99.90;;;;;;5062982;28;20020;-68
2023/06/06 00:02:40;;;;;;;15.98;7.90;;;13.40;99.90;;;;;;5063677;28;20056;-69
2023/06/06 00:05:08;;;;;;;16.60;7.90;;;13.40;99.90;;;;;;5063354;28;20021;-68
2023/06/06 00:07:35;;;;;;;18.42;8.60;;;13.30;99.90;;;;;;5063447;28;20041;-68
2023/06/06 00:10:01;;;;;;;15.48;7.75;;;13.30;99.90;;;;;;5061711;28;20076;-69
2023/06/06 00:12:28;;;;;;;15.93;7.60;;;13.20;99.90;;;;;;5063347;28;20032;-69
2023/06/06 00:14:59;;;;;;;20.50;8.30;;;13.10;99.90;;;;;;5063443;28;20024;-68
2023/06/06 00:17:25;;;;;;;17.48;7.80;;;13.10;99.90;;;;;;5063020;28;20100;-68
2023/06/06 00:19:52;;;;;;;14.88;7.97;;;13.10;99.90;;;;;;5063230;28;20017;-69
2023/06/06 00:22:22;;;;;;;18.08;8.23;;;13.10;99.90;;;;;;5061804;28;20025;-66
2023/06/06 00:24:48;;;;;;;18.10;8.00;;;13.10;99.90;;;;;;5062603;28;20028;-68
2023/06/06 00:27:14;;;;;;;19.85;7.78;;;13.10;99.90;;;;;;5063169;28;20055;-68
2023/06/06 00:29:39;;;;;;;19.20;8.35;;;13.00;99.90;;;;;;5063235;28;20029;-68
2023/06/06 00:32:05;;;;;;;17.92;7.60;;;13.00;99.90;;;;;;5062876;28;20020;-68
2023/06/06 00:34:31;;;;;;;16.88;8.02;;;13.00;99.90;;;;;;5061469;28;20238;-69
2023/06/06 00:36:57;;;;;;;17.42;7.78;;;13.00;99.90;;;;;;5063314;28;20025;-68
2023/06/06 00:39:22;;;;;;;16.02;8.75;;;13.00;99.90;;;;;;5062660;28;20041;-69
2023/06/06 00:41:48;;;;;;;17.92;7.75;;;13.00;99.90;;;;;;5062774;28;20017;-69
2023/06/06 00:44:14;;;;;;;15.30;8.02;;;13.00;99.90;;;;;;5062888;28;20063;-69
2023/06/06 00:46:41;;;;;;;17.58;8.10;;;13.00;99.90;;;;;;5062311;28;20036;-68
2023/06/06 00:49:10;;;;;;;17.50;7.88;;;13.00;99.90;;;;;;5062887;28;20497;-70
2023/06/06 00:51:37;;;;;;;20.80;8.18;;;13.00;99.90;;;;;;5062084;28;20045;-68
2023/06/06 00:54:06;;;;;;;17.00;8.35;;;13.00;99.90;;;;;;5062676;28;21341;-68
2023/06/06 00:56:36;;;;;;;20.35;8.93;;;13.00;99.90;;;;;;5063154;28;20083;-67
2023/06/06 00:59:02;;;;;;;21.45;8.93;;;13.00;99.90;;;;;;5061862;28;20093;-68
2023/06/06 01:01:33;;;;;;;18.25;8.30;;;12.90;99.90;;;;;;5062282;28;20021;-69
2023/06/06 01:04:00;;;;;;;21.50;8.75;;;12.90;99.90;;;;;;5061166;28;20029;-67
2023/06/06 01:06:26;;;;;;;18.88;8.95;;;12.90;99.90;;;;;;5061687;28;20527;-68
2023/06/06 01:08:52;;;;;;;18.88;8.68;;;12.80;99.90;;;;;;5062246;28;20059;-67
2023/06/06 01:11:26;;;;;;;16.08;8.35;;;12.80;99.90;;;;;;5061585;28;20033;-68
2023/06/06 01:14:21;;;;;;;16.38;8.77;;;12.70;99.90;;;;;;5061367;28;20021;-68
2023/06/06 01:16:52;;;;;;;13.95;8.07;;;12.70;99.90;;;;;;5064990;28;20099;-68
2023/06/06 01:19:27;;;;;;;17.92;8.57;;;12.70;99.90;;;;;;5061387;28;20088;-68
2023/06/06 01:21:54;;;;;;;14.65;8.10;;;12.70;99.90;;;;;;5061858;28;20028;-68
2023/06/06 01:24:21;;;;;;;19.27;8.82;;;12.70;99.90;;;;;;5060959;28;20021;-68
2023/06/06 01:26:47;;;;;;;22.83;9.00;;;12.70;99.90;;;;;;5060972;28;20117;-68
2023/06/06 01:29:12;;;;;;;21.10;9.80;;;12.70;99.90;;;;;;5061975;28;20061;-68
2023/06/06 01:31:47;;;;;;;25.33;8.75;;;12.70;99.90;;;;;;5060741;28;20032;-68
2023/06/06 01:34:34;;;;;;;22.52;8.75;;;12.70;99.90;;;;;;5061588;28;20104;-69
2023/06/06 01:37:11;;;;;;;19.83;8.80;;;12.70;99.90;;;;;;5061544;28;20110;-69
2023/06/06 01:39:43;;;;;;;17.38;8.55;;;12.70;99.90;;;;;;5061190;28;20074;-69
2023/06/06 01:42:09;;;;;;;21.65;9.23;;;12.70;99.90;;;;;;5060608;28;20412;-68
2023/06/06 01:44:38;;;;;;;17.88;8.73;;;12.60;99.90;;;;;;5062210;28;20041;-68
2023/06/06 01:47:04;;;;;;;15.25;8.73;;;12.60;99.90;;;;;;5061333;28;20084;-69
2023/06/06 01:49:31;;;;;;;15.38;8.70;;;12.60;99.90;;;;;;5061698;28;20040;-69
2023/06/06 01:51:57;;;;;;;22.17;8.88;;;12.60;99.90;;;;;;5061471;28;20088;-68
2023/06/06 01:54:22;;;;;;;27.98;9.80;;;12.60;99.90;;;;;;5060893;28;20028;-69
2023/06/06 01:56:48;;;;;;;20.98;9.25;;;12.60;99.90;;;;;;5061626;28;20025;-69
2023/06/06 01:59:14;;;;;;;18.70;9.10;;;12.60;99.90;;;;;;5061646;28;20021;-68
2023/06/06 02:01:40;;;;;;;23.40;9.70;;;12.50;99.90;;;;;;5061309;28;20039;-68
2023/06/06 02:04:06;;;;;;;17.65;9.18;;;12.50;99.90;;;;;;5061344;28;20032;-68
2023/06/06 02:06:32;;;;;;;17.63;9.27;;;12.50;99.90;;;;;;5061751;28;20050;-68
2023/06/06 02:08:58;;;;;;;20.63;9.18;;;12.40;99.90;;;;;;5059885;28;20037;-68
2023/06/06 02:11:23;;;;;;;26.40;10.43;;;12.50;99.90;;;;;;5061711;28;20078;-68
2023/06/06 02:13:50;;;;;;;21.10;8.88;;;12.40;99.90;;;;;;5061419;28;20033;-69
2023/06/06 02:16:17;;;;;;;19.40;9.70;;;12.40;99.90;;;;;;5060792;28;20032;-69
2023/06/06 02:18:44;;;;;;;19.35;9.15;;;12.40;99.90;;;;;;5061476;28;20025;-69
2023/06/06 02:21:12;;;;;;;20.23;9.32;;;12.30;99.90;;;;;;5060860;28;20017;-68
2023/06/06 02:23:37;;;;;;;22.92;9.52;;;12.40;99.90;;;;;;5060686;28;20025;-70
2023/06/06 02:26:03;;;;;;;20.90;9.75;;;12.30;99.90;;;;;;5061644;28;20375;-68
2023/06/06 02:28:30;;;;;;;21.50;9.40;;;12.30;99.90;;;;;;5060026;28;20040;-69
2023/06/06 02:30:56;;;;;;;18.38;9.70;;;12.30;99.90;;;;;;5059886;28;20096;-67
2023/06/06 02:33:22;;;;;;;24.95;9.95;;;12.20;99.90;;;;;;5061250;28;20032;-68
2023/06/06 02:35:47;;;;;;;21.90;9.43;;;12.20;99.90;;;;;;5061396;28;20052;-68
2023/06/06 02:38:13;;;;;;;22.40;9.52;;;12.20;99.90;;;;;;5060998;28;20100;-68
2023/06/06 02:40:38;;;;;;;22.85;9.60;;;12.20;99.90;;;;;;5060137;28;20500;-69
2023/06/06 02:43:04;;;;;;;20.23;9.77;;;12.20;99.90;;;;;;5061135;28;20044;-69
2023/06/06 02:45:30;;;;;;;25.33;10.35;;;12.20;99.90;;;;;;5061454;28;20124;-68
2023/06/06 02:47:56;;;;;;;23.52;10.15;;;12.20;99.90;;;;;;5060411;28;20068;-68
2023/06/06 02:50:21;;;;;;;21.67;10.27;;;12.20;99.90;;;;;;5061075;28;20036;-68
2023/06/06 02:52:48;;;;;;;24.02;10.90;;;12.20;99.90;;;;;;5062173;28;20048;-68
2023/06/06 02:55:14;;;;;;;23.23;10.35;;;12.20;99.90;;;;;;5063881;28;20088;-70
2023/06/06 02:57:39;;;;;;;25.42;10.50;;;12.20;99.90;;;;;;5064886;28;20017;-70
2023/06/06 03:00:08;;;;;;;24.05;11.38;;;12.10;99.90;;;;;;5064509;28;20028;-70
2023/06/06 03:02:33;;;;;;;23.25;10.63;;;12.20;99.90;;;;;;5064498;28;20021;-68
2023/06/06 03:04:59;;;;;;;20.42;10.23;;;12.20;99.90;;;;;;5064545;28;20060;-69
2023/06/06 03:07:26;;;;;;;23.40;11.25;;;12.20;99.90;;;;;;5063624;28;20037;-69
2023/06/06 03:09:52;;;;;;;24.73;10.75;;;12.20;99.90;;;;;;5063421;28;20055;-69
2023/06/06 03:12:18;;;;;;;19.38;10.88;;;12.20;99.90;;;;;;5063780;28;20039;-69
2023/06/06 03:14:43;;;;;;;25.27;11.60;;;12.20;99.90;;;;;;5064153;28;20025;-68
2023/06/06 03:17:09;;;;;;;31.15;10.82;;;12.20;99.90;;;;;;5063064;28;20021;-68
2023/06/06 03:19:35;;;;;;;24.55;11.20;;;12.20;99.90;;;;;;5064087;28;20053;-70
2023/06/06 03:22:01;;;;;;;20.98;10.82;;;12.10;99.90;;;;;;5064604;28;20020;-69
2023/06/06 03:24:29;;;;;;;27.48;11.30;;;12.20;99.90;;;;;;5064235;28;20024;-68
2023/06/06 03:26:55;;;;;;;22.15;10.27;;;12.20;99.90;;;;;;5063616;28;20020;-69
2023/06/06 03:29:21;;;;;;;23.65;11.43;;;12.20;99.90;;;;;;5064241;28;20062;-68
2023/06/06 03:31:49;;;;;;;25.25;11.85;;;12.20;99.90;;;;;;5064333;28;20028;-68
2023/06/06 03:34:14;;;;;;;23.98;11.48;;;12.20;99.90;;;;;;5063973;28;20112;-69
2023/06/06 03:36:40;;;;;;;26.90;12.93;;;12.20;99.90;;;;;;5062237;28;20018;-69
2023/06/06 03:39:06;;;;;;;25.52;12.57;;;12.10;99.90;;;;;;5064014;28;20040;-69
2023/06/06 03:41:31;;;;;;;28.63;13.13;;;12.10;99.90;;;;;;5063940;28;20033;-68
2023/06/06 03:44:00;;;;;;;26.38;12.52;;;12.10;99.90;;;;;;5064000;28;20032;-68
2023/06/06 03:46:25;;;;;;;28.67;13.55;;;12.10;99.90;;;;;;5064002;28;20039;-68
2023/06/06 03:48:51;;;;;;;30.25;13.27;;;12.10;99.90;;;;;;5062997;28;20033;-68
2023/06/06 03:51:17;;;;;;;25.38;13.27;;;12.00;99.90;;;;;;5063686;28;20051;-69
2023/06/06 03:53:42;;;;;;;26.67;13.68;;;12.10;99.90;;;;;;5063240;28;20522;-68
2023/06/06 03:56:08;;;;;;;26.17;13.32;;;12.00;99.90;;;;;;5063680;28;20694;-69
2023/06/06 03:58:34;;;;;;;23.20;13.55;;;12.00;99.90;;;;;;5063136;28;20017;-69
2023/06/06 04:01:01;;;;;;;29.08;13.55;;;12.00;99.90;;;;;;5062034;28;20025;-68
2023/06/06 04:03:27;;;;;;;25.27;13.32;;;12.00;99.90;;;;;;5063397;28;20060;-69
2023/06/06 04:05:53;;;;;;;28.75;14.30;;;12.00;99.90;;;;;;5061849;28;20029;-67
2023/06/06 04:08:19;;;;;;;24.92;13.25;;;12.00;99.90;;;;;;5063176;28;20041;-68
2023/06/06 04:10:44;;;;;;;34.60;14.27;;;12.00;99.90;;;;;;5063488;28;20033;-68
2023/06/06 04:13:10;;;;;;;25.88;14.00;;;12.10;99.90;;;;;;5062137;28;20024;-70
2023/06/06 04:15:36;;;;;;;28.63;13.95;;;12.10;99.90;;;;;;5063290;28;20025;-67
2023/06/06 04:18:02;;;;;;;27.42;13.60;;;12.10;99.90;;;;;;5063598;28;20029;-68
2023/06/06 04:20:28;;;;;;;27.85;13.73;;;12.10;99.90;;;;;;5063642;28;20033;-68
2023/06/06 04:22:54;;;;;;;33.53;14.82;;;12.20;99.90;;;;;;5062599;28;20103;-69
2023/06/06 04:25:19;;;;;;;34.72;14.43;;;12.20;99.90;;;;;;5063431;28;20076;-68
2023/06/06 04:27:45;;;;;;;28.63;14.23;;;12.20;99.90;;;;;;5062558;28;20429;-68
2023/06/06 04:30:12;;;;;;;30.40;15.18;;;12.20;99.90;;;;;;5062722;28;20029;-70
2023/06/06 04:32:39;;;;;;;30.88;14.95;;;12.20;99.90;;;;;;5063007;28;20037;-69
2023/06/06 04:35:07;;;;;;;29.05;15.55;;;12.30;99.90;;;;;;5063380;28;20052;-68
2023/06/06 04:37:33;;;;;;;29.92;15.75;;;12.30;99.90;;;;;;5061638;28;20112;-68
2023/06/06 04:40:00;;;;;;;31.58;15.38;;;12.30;99.90;;;;;;5062919;28;20282;-68
2023/06/06 04:42:32;;;;;;;29.63;15.13;;;12.40;99.90;;;;;;5062160;28;20040;-69
2023/06/06 04:44:59;;;;;;;32.30;14.95;;;12.40;99.90;;;;;;5062622;28;20025;-67
2023/06/06 04:47:28;;;;;;;32.88;15.70;;;12.50;99.90;;;;;;5062216;28;20034;-67
2023/06/06 04:49:54;;;;;;;31.83;15.65;;;12.50;99.90;;;;;;5061894;28;20055;-68
2023/06/06 04:52:20;;;;;;;30.77;15.40;;;12.50;99.90;;;;;;5062229;28;20075;-68
2023/06/06 04:54:46;;;;;;;30.98;15.48;;;12.50;99.90;;;;;;5061942;28;20025;-68
2023/06/06 04:57:15;;;;;;;31.92;15.48;;;12.60;99.90;;;;;;5062220;28;20021;-69
2023/06/06 04:59:41;;;;;;;33.35;14.98;;;12.60;99.90;;;;;;5062115;28;20075;-68
2023/06/06 05:02:07;;;;;;;34.35;16.25;;;12.60;99.90;;;;;;5062179;28;20074;-70
2023/06/06 05:04:33;;;;;;;35.70;15.57;;;12.70;99.90;;;;;;5062040;28;20044;-69
2023/06/06 05:06:59;;;;;;;36.17;15.63;;;12.70;99.90;;;;;;5061917;28;20021;-69
2023/06/06 05:09:26;;;;;;;35.13;16.08;;;12.80;99.90;;;;;;5062455;28;20466;-67
2023/06/06 05:11:52;;;;;;;31.88;15.82;;;12.80;99.90;;;;;;5060507;28;20047;-67
2023/06/06 05:14:23;;;;;;;30.85;16.17;;;12.80;99.90;;;;;;5060889;28;20029;-68
2023/06/06 05:16:53;;;;;;;35.55;16.60;;;12.80;99.90;;;;;;5058686;28;20485;-69
2023/06/06 05:19:20;;;;;;;33.42;15.95;;;12.90;99.90;;;;;;5061146;28;20025;-69
2023/06/06 05:21:46;;;;;;;31.85;16.38;;;12.90;99.90;;;;;;5060504;28;20029;-66
2023/06/06 05:24:13;;;;;;;31.67;15.23;;;12.90;99.90;;;;;;5061169;28;20059;-67
2023/06/06 05:26:38;;;;;;;34.20;15.65;;;12.90;99.90;;;;;;5061623;28;20025;-70
2023/06/06 05:29:04;;;;;;;33.17;15.50;;;12.90;99.90;;;;;;5058721;28;20045;-70
2023/06/06 05:31:30;;;;;;;35.08;16.33;;;13.00;99.90;;;;;;5060150;28;20025;-66
2023/06/06 05:33:55;;;;;;;29.63;14.52;;;13.00;99.90;;;;;;5058075;28;20029;-69
2023/06/06 05:36:21;;;;;;;32.20;14.88;;;13.10;99.90;;;;;;5059776;28;20025;-67
2023/06/06 05:38:47;;;;;;;26.55;13.40;;;13.10;99.90;;;;;;5061240;28;20021;-67
2023/06/06 05:41:13;;;;;;;29.88;14.18;;;13.20;99.90;;;;;;5058385;28;20035;-67
2023/06/06 05:43:39;;;;;;;29.15;13.80;;;13.30;99.90;;;;;;5061834;28;20025;-67
2023/06/06 05:46:05;;;;;;;26.58;12.98;;;13.30;99.90;;;;;;5061133;28;20040;-69
2023/06/06 05:48:32;;;;;;;28.48;14.13;;;13.40;99.90;;;;;;5047036;28;20052;-67
2023/06/06 05:50:58;;;;;;;27.38;14.00;;;13.40;99.90;;;;;;5054461;28;20037;-66
2023/06/06 05:53:24;;;;;;;26.63;14.10;;;13.50;99.90;;;;;;5051858;28;20249;-66
2023/06/06 05:55:50;;;;;;;25.58;13.25;;;13.50;99.90;;;;;;5059664;28;20734;-68
2023/06/06 05:58:15;;;;;;;32.75;13.95;;;13.50;99.90;;;;;;5060752;28;20096;-67
2023/06/06 06:00:41;;;;;;;26.90;13.32;;;13.50;99.90;;;;;;5061123;28;20024;-68
2023/06/06 06:03:08;;;;;;;27.67;13.57;;;13.60;99.90;;;;;;5061704;28;20500;-69
2023/06/06 06:05:34;;;;;;;29.70;12.98;;;13.70;99.90;;;;;;5061438;28;20033;-67
2023/06/06 06:08:01;;;;;;;29.52;12.90;;;13.70;99.90;;;;;;5059844;28;20432;-68
2023/06/06 06:10:34;;;;;;;26.27;12.48;;;13.80;99.90;;;;;;5061207;28;20389;-68
2023/06/06 06:13:00;;;;;;;22.75;11.98;;;13.90;99.90;;;;;;5061103;28;20457;-68
2023/06/06 06:15:28;;;;;;;25.70;11.30;;;14.00;99.90;;;;;;5061122;28;20104;-69
2023/06/06 06:17:53;;;;;;;23.67;11.07;;;14.00;99.90;;;;;;5060985;28;20028;-67
2023/06/06 06:20:19;;;;;;;23.02;10.98;;;14.10;99.90;;;;;;5061107;28;20032;-67
2023/06/06 06:22:46;;;;;;;21.10;10.57;;;14.10;99.90;;;;;;5060427;28;20021;-68
2023/06/06 06:25:16;;;;;;;23.50;9.98;;;14.20;99.90;;;;;;5061663;28;20029;-67
2023/06/06 06:27:43;;;;;;;22.00;10.02;;;14.30;99.90;;;;;;5061541;28;20040;-69
2023/06/06 06:30:10;;;;;;;25.90;11.38;;;14.40;99.90;;;;;;5062828;28;20096;-68
2023/06/06 06:32:41;;;;;;;24.23;11.10;;;14.50;99.90;;;;;;5062539;28;20029;-68
2023/06/06 06:35:08;;;;;;;23.65;10.95;;;14.50;99.90;;;;;;5063846;28;20036;-66
2023/06/06 06:37:39;;;;;;;24.25;11.40;;;14.60;99.90;;;;;;5063617;28;20029;-69
2023/06/06 06:40:09;;;;;;;20.35;10.50;;;14.60;99.90;;;;;;5065255;28;20366;-66
2023/06/06 06:42:39;;;;;;;21.38;10.95;;;14.70;99.90;;;;;;5064828;28;20025;-67
2023/06/06 06:45:10;;;;;;;23.23;11.13;;;14.80;99.90;;;;;;5065140;28;20021;-69
2023/06/06 06:47:37;;;;;;;25.55;10.75;;;14.90;99.90;;;;;;5062304;28;20041;-67
2023/06/06 06:50:04;;;;;;;19.92;11.20;;;14.90;99.90;;;;;;5064331;28;20025;-67
2023/06/06 06:52:33;;;;;;;21.70;10.35;;;15.00;99.90;;;;;;5063949;28;20040;-68
2023/06/06 06:55:00;;;;;;;25.42;10.43;;;15.00;99.90;;;;;;5062377;28;20108;-68
2023/06/06 06:57:26;;;;;;;23.05;10.95;;;15.10;99.90;;;;;;5062177;28;20025;-66
2023/06/06 06:59:52;;;;;;;25.55;10.05;;;15.10;99.90;;;;;;5061909;28;20074;-67
2023/06/06 07:02:19;;;;;;;20.13;10.00;;;15.20;99.90;;;;;;5056879;28;20036;-68
2023/06/06 07:04:46;;;;;;;19.80;10.45;;;15.30;99.90;;;;;;5062651;28;20027;-67
2023/06/06 07:07:15;;;;;;;24.40;11.10;;;15.40;99.90;;;;;;5063672;28;20037;-67
2023/06/06 07:09:40;;;;;;;22.02;10.73;;;15.50;99.90;;;;;;5064150;28;20385;-68
2023/06/06 07:12:07;;;;;;;22.95;10.48;;;15.50;99.90;;;;;;5064583;28;20041;-68
2023/06/06 07:14:33;;;;;;;19.23;10.18;;;15.60;99.90;;;;;;5064460;28;20138;-68
2023/06/06 07:16:59;;;;;;;19.10;9.90;;;15.70;99.90;;;;;;5063097;28;20427;-66
2023/06/06 07:19:26;;;;;;;20.30;10.50;;;15.80;99.90;;;;;;5063629;28;20108;-67
2023/06/06 07:21:52;;;;;;;26.77;10.52;;;15.90;99.90;;;;;;5063211;28;20028;-67
2023/06/06 07:24:20;;;;;;;21.52;10.35;;;15.90;99.90;;;;;;5064014;28;20017;-66
2023/06/06 07:26:45;;;;;;;24.20;11.75;;;16.00;99.90;;;;;;5062732;28;20032;-67
2023/06/06 07:29:11;;;;;;;21.80;10.63;;;16.10;99.90;;;;;;5062303;28;20088;-67
2023/06/06 07:31:37;;;;;;;19.13;10.52;;;16.10;99.90;;;;;;5063632;28;20037;-68
2023/06/06 07:34:03;;;;;;;23.60;10.65;;;16.20;99.90;;;;;;5063959;28;20049;-67
2023/06/06 07:36:30;;;;;;;25.88;11.15;;;16.20;99.90;;;;;;5064300;28;20029;-68
2023/06/06 07:38:57;;;;;;;23.88;10.85;;;16.30;99.90;;;;;;5059897;28;20044;-66
2023/06/06 07:41:23;;;;;;;19.25;10.88;;;16.50;99.90;;;;;;5062297;28;20027;-67
2023/06/06 07:43:50;;;;;;;24.00;10.63;;;16.50;99.90;;;;;;5063450;28;20100;-65
2023/06/06 07:46:16;;;;;;;20.80;10.35;;;16.60;99.90;;;;;;5062987;28;20032;-66
2023/06/06 07:48:42;;;;;;;21.73;10.13;;;16.70;99.90;;;;;;5063239;28;20037;-68
2023/06/06 07:51:08;;;;;;;16.55;9.10;;;16.80;99.90;;;;;;5061863;28;20048;-68
2023/06/06 07:53:33;;;;;;;19.15;9.70;;;16.90;99.90;;;;;;5061041;28;20029;-65
2023/06/06 07:55:59;;;;;;;22.90;9.98;;;17.00;99.90;;;;;;5061065;28;20035;-67
2023/06/06 07:58:27;;;;;;;21.10;10.10;;;17.00;99.90;;;;;;5061566;28;20045;-67
2023/06/06 08:00:53;;;;;;;22.05;9.52;;;17.20;99.90;;;;;;5062675;28;20028;-67
2023/06/06 08:03:18;;;;;;;23.05;9.52;;;17.30;99.90;;;;;;5062839;28;20025;-68
2023/06/06 08:05:44;;;;;;;26.33;9.82;;;17.40;99.90;;;;;;5061055;28;20472;-66
2023/06/06 08:08:10;;;;;;;20.42;10.43;;;17.50;99.90;;;;;;5062179;28;20045;-69
2023/06/06 08:10:36;;;;;;;19.30;10.13;;;17.50;99.90;;;;;;5062282;28;20111;-67
2023/06/06 08:13:02;;;;;;;20.70;9.45;;;17.60;99.90;;;;;;5059507;28;20290;-66
2023/06/06 08:15:27;;;;;;;15.65;8.80;;;17.70;99.90;;;;;;5061281;28;20021;-67
2023/06/06 08:17:53;;;;;;;15.27;8.30;;;17.80;99.90;;;;;;5062644;28;20148;-68
2023/06/06 08:20:19;;;;;;;17.92;8.57;;;17.90;99.90;;;;;;5062373;28;20101;-67
2023/06/06 08:22:51;;;;;;;13.73;7.30;;;17.90;99.90;;;;;;5058880;28;20053;-68
2023/06/06 08:25:17;;;;;;;22.58;7.90;;;18.10;99.90;;;;;;5062199;28;20036;-67
2023/06/06 08:27:42;;;;;;;14.18;7.57;;;18.20;99.90;;;;;;5061702;28;20064;-67
2023/06/06 08:30:09;;;;;;;18.05;8.10;;;18.30;99.90;;;;;;5061909;28;20028;-69
2023/06/06 08:32:35;;;;;;;12.90;7.97;;;18.30;99.90;;;;;;5060631;28;20482;-67
2023/06/06 08:35:03;;;;;;;14.50;7.18;;;18.40;99.90;;;;;;5061646;28;20651;-66
2023/06/06 08:37:30;;;;;;;18.75;8.10;;;18.50;99.90;;;;;;5062366;28;20069;-67
2023/06/06 08:39:56;;;;;;;15.38;7.25;;;18.60;99.90;;;;;;5060837;28;20478;-68
2023/06/06 08:42:22;;;;;;;16.35;7.72;;;18.70;99.90;;;;;;5061025;28;20029;-67
2023/06/06 08:44:49;;;;;;;14.68;7.65;;;18.80;99.90;;;;;;5061755;28;20075;-69
2023/06/06 08:47:17;;;;;;;17.50;6.80;;;18.80;99.90;;;;;;5062196;28;20025;-65
2023/06/06 08:49:43;;;;;;;15.13;7.07;;;19.00;99.90;;;;;;5062505;28;20043;-68
2023/06/06 08:52:09;;;;;;;16.08;6.65;;;19.00;99.90;;;;;;5062637;28;20045;-67
2023/06/06 08:54:36;;;;;;;17.50;6.50;;;19.20;99.90;;;;;;5061676;28;20037;-67
2023/06/06 08:57:08;;;;;;;12.70;6.43;;;19.20;99.90;;;;;;5062169;28;20025;-66
2023/06/06 08:59:37;;;;;;;17.55;6.88;;;19.30;99.90;;;;;;5059275;28;20045;-65
2023/06/06 09:02:06;;;;;;;16.45;6.60;;;19.50;99.90;;;;;;5057273;28;20040;-66
2023/06/06 09:04:33;;;;;;;15.60;6.65;;;19.70;99.90;;;;;;5058415;28;20029;-66
2023/06/06 09:07:04;;;;;;;13.77;6.28;;;19.80;99.90;;;;;;5059616;28;20029;-68
2023/06/06 09:09:33;;;;;;;13.60;7.10;;;20.00;99.90;;;;;;5061047;28;20029;-66
2023/06/06 09:11:59;;;;;;;12.13;6.47;;;20.10;99.90;;;;;;5060819;28;20459;-67
2023/06/06 09:14:25;;;;;;;16.35;7.30;;;20.10;99.90;;;;;;5058620;28;20608;-68
2023/06/06 09:16:52;;;;;;;16.27;6.60;;;20.20;99.90;;;;;;5060586;28;20028;-67
2023/06/06 09:19:23;;;;;;;12.75;6.55;;;20.20;99.90;;;;;;5056989;28;20040;-67
2023/06/06 09:21:49;;;;;;;11.45;6.03;;;20.20;99.90;;;;;;5057844;28;20094;-67
2023/06/06 09:24:16;;;;;;;14.80;6.35;;;20.30;99.90;;;;;;5061475;28;20462;-67
2023/06/06 09:26:42;;;;;;;12.25;6.40;;;20.30;99.90;;;;;;5061482;28;20028;-68
2023/06/06 09:29:08;;;;;;;17.20;6.22;;;20.40;99.90;;;;;;5057800;28;20040;-68
2023/06/06 09:31:37;;;;;;;15.20;5.43;;;20.50;99.90;;;;;;5059313;28;20063;-67
2023/06/06 09:34:03;;;;;;;13.35;6.45;;;20.50;99.90;;;;;;5056956;28;20025;-68
2023/06/06 09:36:29;;;;;;;12.95;6.78;;;20.60;99.90;;;;;;5060978;28;20032;-66
2023/06/06 09:39:11;;;;;;;10.77;5.30;;;20.70;99.90;;;;;;5056582;28;20048;-68
2023/06/06 09:41:47;;;;;;;11.07;5.13;;;20.80;99.90;;;;;;5061193;28;20029;-68
2023/06/06 09:44:28;;;;;;;16.33;5.45;;;20.80;99.90;;;;;;5061486;28;20032;-67
2023/06/06 09:46:57;;;;;;;13.57;5.90;;;20.90;99.90;;;;;;5060021;28;20032;-66
2023/06/06 09:49:22;;;;;;;11.10;5.40;;;21.00;99.90;;;;;;5058996;28;20041;-66
2023/06/06 09:51:51;;;;;;;11.57;5.43;;;21.00;99.90;;;;;;5059905;28;20087;-66
2023/06/06 09:54:17;;;;;;;10.15;5.47;;;21.10;99.90;;;;;;5059897;28;20025;-66
2023/06/06 09:56:46;;;;;;;10.35;5.28;;;21.20;99.90;;;;;;5059588;28;20029;-66
2023/06/06 09:59:14;;;;;;;14.80;5.90;;;21.30;99.90;;;;;;5059708;28;20029;-65
2023/06/06 10:01:42;;;;;;;13.57;5.13;;;21.40;99.90;;;;;;5059793;28;20096;-66
2023/06/06 10:04:09;;;;;;;13.27;5.50;;;21.40;99.90;;;;;;5060939;28;20032;-66
2023/06/06 10:06:37;;;;;;;15.35;5.50;;;21.50;99.90;;;;;;5059187;28;20017;-67
2023/06/06 10:09:05;;;;;;;9.15;5.13;;;21.60;99.90;;;;;;5061285;28;20037;-67
2023/06/06 10:11:35;;;;;;;10.68;5.60;;;21.60;99.90;;;;;;5061630;28;20024;-66
2023/06/06 10:14:03;;;;;;;11.32;4.95;;;21.70;99.90;;;;;;5061387;28;20029;-66
2023/06/06 10:16:30;;;;;;;11.48;5.28;;;21.80;99.90;;;;;;5059352;28;20087;-67
2023/06/06 10:18:57;;;;;;;12.95;4.75;;;21.90;99.90;;;;;;5061460;28;20033;-67
2023/06/06 10:21:24;;;;;;;13.93;5.65;;;22.00;99.90;;;;;;5058733;28;20036;-66
2023/06/06 10:23:50;;;;;;;9.57;4.65;;;22.00;99.90;;;;;;5058421;28;20025;-65
2023/06/06 10:26:23;;;;;;;12.27;4.70;;;22.20;99.90;;;;;;5057927;28;20075;-66
2023/06/06 10:29:24;;;;;;;12.73;4.75;;;22.30;99.90;;;;;;5060446;28;20091;-66
2023/06/06 10:31:57;;;;;;;9.10;4.50;;;22.40;99.90;;;;;;5059226;28;20025;-65
2023/06/06 10:34:35;;;;;;;10.95;4.95;;;22.40;99.90;;;;;;5054893;28;20112;-66
2023/06/06 10:37:18;;;;;;;11.82;4.65;;;22.50;99.90;;;;;;5057830;28;20076;-67
2023/06/06 10:39:47;;;;;;;11.00;4.10;;;22.50;99.90;;;;;;5057534;28;20390;-65
2023/06/06 10:42:14;;;;;;;10.65;4.15;;;22.60;99.90;;;;;;5059262;28;20131;-67
2023/06/06 10:44:46;;;;;;;11.20;4.72;;;22.70;99.90;;;;;;5060595;28;20017;-68
2023/06/06 10:47:20;;;;;;;10.60;4.70;;;22.80;99.90;;;;;;5058620;28;20048;-66
2023/06/06 10:50:11;;;;;;;10.48;4.70;;;23.00;99.90;;;;;;5057085;28;20140;-66
2023/06/06 10:52:50;;;;;;;9.13;4.45;;;23.10;99.90;;;;;;5059062;28;20049;-65
2023/06/06 10:55:24;;;;;;;11.13;4.35;;;23.10;99.90;;;;;;5060341;28;20017;-66
2023/06/06 10:58:13;;;;;;;7.35;4.57;;;23.20;99.90;;;;;;5060549;28;20064;-66
2023/06/06 11:00:45;;;;;;;9.80;5.07;;;23.20;99.90;;;;;;5059749;28;20051;-65
2023/06/06 11:03:13;;;;;;;10.43;4.90;;;23.30;99.90;;;;;;5058389;28;20037;-66
2023/06/06 11:06:01;;;;;;;9.95;4.65;;;23.30;99.90;;;;;;5059463;28;20101;-67
2023/06/06 11:08:53;;;;;;;8.05;4.18;;;23.40;99.90;;;;;;5060615;28;20088;-66
2023/06/06 11:11:27;;;;;;;10.57;4.80;;;23.40;99.90;;;;;;5060348;28;20390;-66
2023/06/06 11:14:00;;;;;;;9.70;5.10;;;23.40;99.90;;;;;;5060875;28;20028;-65
2023/06/06 11:16:40;;;;;;;9.85;4.85;;;23.50;99.90;;;;;;5063456;28;20033;-65
2023/06/06 11:19:08;;;;;;;10.57;4.57;;;23.60;99.90;;;;;;5063380;28;20044;-66
2023/06/06 11:21:41;;;;;;;12.68;4.75;;;23.70;99.90;;;;;;5064028;28;20020;-67
2023/06/06 11:24:08;;;;;;;10.83;4.67;;;23.80;99.90;;;;;;5064173;28;20052;-68
2023/06/06 11:26:35;;;;;;;11.63;4.70;;;23.90;99.90;;;;;;5059644;28;20145;-68
2023/06/06 11:29:02;;;;;;;12.95;4.75;;;24.00;99.90;;;;;;5063486;28;20037;-68
2023/06/06 11:31:28;;;;;;;9.85;4.15;;;24.00;99.90;;;;;;5062839;28;20064;-67
2023/06/06 11:34:10;;;;;;;12.43;4.60;;;24.10;99.90;;;;;;5061425;28;20033;-67
2023/06/06 11:36:38;;;;;;;9.68;4.20;;;24.10;99.90;;;;;;5062452;28;20021;-69
2023/06/06 11:39:07;;;;;;;8.95;4.68;;;24.30;99.90;;;;;;5062762;28;20025;-66
2023/06/06 11:41:47;;;;;;;10.02;4.40;;;24.40;99.90;;;;;;5063470;28;20059;-67
2023/06/06 11:44:16;;;;;;;9.52;3.92;;;24.40;99.90;;;;;;5063128;28;20025;-68
2023/06/06 11:46:52;;;;;;;9.90;4.22;;;24.50;99.90;;;;;;5061268;28;20059;-66
2023/06/06 11:49:19;;;;;;;11.70;4.38;;;24.50;99.90;;;;;;5063294;28;20053;-67
2023/06/06 11:51:58;;;;;;;12.82;4.63;;;24.60;99.90;;;;;;5061745;28;20041;-66
2023/06/06 11:54:27;;;;;;;7.32;4.18;;;24.60;99.90;;;;;;5063214;28;20078;-67
2023/06/06 11:56:56;;;;;;;10.38;4.50;;;24.70;99.90;;;;;;5059578;28;20029;-68
2023/06/06 11:59:21;;;;;;;8.43;3.83;;;24.80;99.90;;;;;;5062114;28;20074;-67
2023/06/06 12:01:52;;;;;;;10.73;4.57;;;24.90;99.90;;;;;;5062345;28;20513;-68
2023/06/06 12:04:19;;;;;;;8.48;4.40;;;25.00;99.90;;;;;;5062818;28;20093;-66
2023/06/06 12:06:47;;;;;;;7.28;3.78;;;25.10;99.90;;;;;;5062306;28;20033;-67
2023/06/06 12:09:13;;;;;;;8.68;3.90;;;25.00;99.90;;;;;;5062736;28;20067;-65
2023/06/06 12:11:55;;;;;;;8.38;3.83;;;25.00;99.90;;;;;;5059618;28;20059;-67
2023/06/06 12:14:22;;;;;;;7.57;4.10;;;25.00;99.90;;;;;;5062779;28;20017;-66
2023/06/06 12:16:48;;;;;;;8.45;4.30;;;25.10;99.90;;;;;;5062783;28;20021;-66
2023/06/06 12:19:14;;;;;;;8.50;4.20;;;25.10;99.90;;;;;;5063123;28;20128;-66
2023/06/06 12:21:45;;;;;;;8.13;3.92;;;25.20;99.90;;;;;;5062946;28;20125;-66
2023/06/06 12:24:25;;;;;;;9.15;4.03;;;25.30;99.90;;;;;;5062906;28;20028;-66
2023/06/06 12:26:53;;;;;;;11.27;3.83;;;25.30;99.90;;;;;;5059739;28;20027;-66
2023/06/06 12:29:30;;;;;;;10.70;4.13;;;25.50;99.90;;;;;;5061800;28;20097;-67
2023/06/06 12:32:15;;;;;;;13.20;4.43;;;25.60;99.90;;;;;;5058992;28;20059;-68
2023/06/06 12:34:49;;;;;;;9.02;4.10;;;25.60;99.90;;;;;;5060802;28;20460;-66
2023/06/06 12:37:16;;;;;;;8.82;3.70;;;25.60;99.90;;;;;;5058772;28;20045;-66